Terminal Aerodrome Forecast
Issued by NWS Upton, NY

Home | Current Version | Previous Version | Text Only | Print | Product List | Glossary On
Versions: 1 2 3 4 5 6 7 8 9 10 11 12 13 14 15 16 17 18 19 20 21 22 23 24 25 26 27 28 29 30 31 32
000
FTUS41 KOKX 100214 AAA
TAFBDR
TAF AMD
KBDR 100214Z 1002/1024 30012G18KT P6SM FEW040
     FM100300 30010KT P6SM FEW040 SCT150
     FM101400 28012G19KT P6SM BKN050 BKN150
     FM102300 28007KT P6SM SCT050=

USA.gov is the U.S. government's official web portal to all federal, state and local government web resources and services.